createdAt,value
2023-03-19T00:14:45.165Z,65.79
2023-03-19T00:29:36.161Z,64.65
2023-03-19T00:44:26.958Z,68.08
2023-03-19T00:59:18.444Z,67.26
2023-03-19T01:14:09.853Z,66.69
2023-03-19T01:29:01.220Z,67.36
2023-03-19T01:43:51.260Z,66.77
2023-03-19T01:58:41.764Z,65.87
2023-03-19T02:13:33.790Z,65.31
2023-03-19T02:28:23.990Z,65.83
2023-03-19T02:43:14.433Z,63.35
2023-03-19T02:58:06.596Z,63.06
2023-03-19T03:12:58.924Z,63.63
2023-03-19T03:27:50.146Z,63.29
2023-03-19T03:42:41.142Z,64.02
2023-03-19T03:57:31.825Z,66.01
2023-03-19T04:12:24.877Z,66.36
2023-03-19T04:27:13.267Z,68.09
2023-03-19T04:42:04.486Z,67.23
2023-03-19T04:56:54.942Z,67.00
2023-03-19T05:11:46.359Z,65.70
2023-03-19T05:26:37.479Z,65.62
2023-03-19T05:41:28.276Z,64.99
2023-03-19T05:56:19.138Z,65.41
2023-03-19T06:11:11.316Z,65.67
2023-03-19T06:26:04.127Z,65.68
2023-03-19T06:40:55.455Z,64.21
2023-03-19T07:10:38.873Z,63.68
2023-03-19T07:25:29.531Z,63.77
2023-03-19T07:40:23.259Z,63.61
2023-03-19T07:55:16.744Z,61.90
2023-03-19T08:10:08.917Z,61.60
2023-03-19T08:25:02.096Z,59.92
2023-03-19T08:39:55.301Z,57.18
2023-03-19T08:55:01.343Z,54.94
2023-03-19T09:09:53.557Z,52.22
2023-03-19T09:24:44.289Z,53.46
2023-03-19T09:39:35.192Z,53.69
2023-03-19T09:54:29.350Z,52.01
2023-03-19T10:09:32.043Z,48.67
2023-03-19T10:24:36.547Z,47.97
2023-03-19T10:39:33.617Z,47.64
2023-03-19T10:54:25.923Z,47.12
2023-03-19T11:09:35.426Z,46.82
2023-03-19T11:24:33.169Z,48.44
2023-03-19T11:55:02.816Z,48.81
2023-03-19T12:10:21.234Z,47.38
2023-03-19T12:25:25.808Z,47.81
2023-03-19T12:40:20.157Z,50.80
2023-03-19T12:55:42.947Z,50.08
2023-03-19T13:25:47.732Z,51.81
2023-03-19T13:40:39.445Z,52.32
2023-03-19T13:55:30.688Z,54.02
2023-03-19T14:10:30.351Z,53.25
2023-03-19T14:25:25.218Z,54.66
2023-03-19T14:40:23.745Z,55.16
2023-03-19T14:55:19.233Z,55.30
2023-03-19T15:10:13.797Z,55.24
2023-03-19T15:25:12.556Z,54.58
2023-03-19T15:40:06.738Z,56.31
2023-03-19T15:54:57.728Z,57.18
2023-03-19T16:09:47.208Z,59.59
2023-03-19T16:24:36.559Z,67.55
2023-03-19T16:39:35.322Z,70.84
2023-03-19T16:54:29.159Z,73.92
2023-03-19T17:09:19.118Z,77.53
2023-03-19T17:24:15.402Z,79.39
2023-03-19T17:39:10.428Z,81.00
2023-03-19T17:54:00.617Z,81.73
2023-03-19T18:08:51.852Z,83.26
2023-03-19T18:23:43.078Z,85.22
2023-03-19T18:53:38.494Z,87.37
2023-03-19T19:08:28.884Z,88.48
2023-03-19T19:23:19.428Z,87.75
2023-03-19T19:38:09.755Z,89.62
2023-03-19T19:53:00.957Z,90.76
2023-03-19T20:07:51.065Z,91.24
2023-03-19T20:22:42.274Z,91.29
2023-03-19T20:37:33.774Z,91.39
2023-03-19T20:52:25.183Z,91.81
2023-03-19T21:07:22.625Z,91.74
2023-03-19T21:37:23.802Z,87.54
2023-03-19T21:52:21.643Z,85.13
2023-03-19T22:07:16.501Z,84.62
2023-03-19T22:22:07.869Z,84.77
2023-03-19T22:36:58.913Z,85.29
2023-03-19T23:06:54.548Z,85.70
2023-03-19T23:21:45.235Z,87.25
2023-03-19T23:36:37.966Z,88.24
2023-03-19T23:51:28.348Z,88.98
